météowapi.be MeteoWapi, Belgique

50° 38.40' N | 003° 22.32' E | 21 meter | Voir la carte

Historique Wunderground.com

21-nov-2017 12:40

Station:Lacrosse WS1640
Logiciel:weewx v3.4.0
Temps de fonctionnement de Weewx:330 Jours, 2 Heures, 1 Minute
Temps de fonctionnement du Serveur:416 Jours, 2 Heures, 20 Minutes
   Pas de vigilance météorologique particulière.   -   Il n'y a aucun avertissement

Historique Wunderground.com

Données Historiques de MétéoKain
 
Journalier Rapport pour Novembre 21, 2017 Unitée:  Métrique    Impériale   Les deux
« Précédent Jour
Suivant Jour »
Journalier Hebdomadaire Mensuel Annuel Sur mesure
  Actuel: Max: Min: Moyenne:
Température: 10.9 °C 11.2 °C 10.2 °C 10.8 °C
Point de rosée: 9.1 °C 9.8 °C 8.6 °C 9.4 °C
Humidité: 89 % 92 % 89 % 91 %
Vent: 10.3 km/h 12.7 km/h 6.1 km/h 8.7 km/h
Rafales: 12.6 km/h 25.3 km/h - -
Vent:SW - - SW
Pression: 1013.4 hPa 1014.1 hPa 1007.7 hPa -
Pluie: 4.06 mm      
Historical Graphs
 
 
Données tabulaires pour Novembre 21, 2017
Heure Température Point de rosée Pression Vent Vent Rafales Humidité Pluie Taux (Horaire)
00:00 10.7 °C 9.3 °C 1013.4 hPa WSW 7.1 km/h 15.3 km/h 91 % 0.76 mm
00:05 10.8 °C 9.4 °C 1013.4 hPa WSW 6.8 km/h 10.1 km/h 91 % 0.76 mm
00:25 10.9 °C 9.5 °C 1013.8 hPa West 7.7 km/h 9 km/h 91 % 1.27 mm
00:35 10.9 °C 9.5 °C 1013.8 hPa SW 6.9 km/h 11.9 km/h 91 % 0.76 mm
00:50 10.9 °C 9.5 °C 1013.8 hPa WSW 6.6 km/h 11.3 km/h 91 % 1.27 mm
00:55 10.9 °C 9.5 °C 1013.8 hPa SW 6.9 km/h 11.3 km/h 91 % 1.27 mm
01:05 11 °C 9.6 °C 1013.8 hPa SW 6.9 km/h 13.2 km/h 91 % 1.27 mm
01:25 11.1 °C 9.7 °C 1013.8 hPa West 6.9 km/h 10.6 km/h 91 % 0.76 mm
01:35 11.1 °C 9.7 °C 1013.8 hPa SW 6.6 km/h 11.6 km/h 91 % 1.27 mm
01:55 11.2 °C 9.8 °C 1013.4 hPa WSW 7.4 km/h 8.4 km/h 91 % 0.76 mm
02:05 11.2 °C 9.8 °C 1013.4 hPa WSW 6.3 km/h 9.8 km/h 91 % 0.76 mm
02:15 11.1 °C 9.7 °C 1013.4 hPa WSW 7.1 km/h 13.5 km/h 91 % 0.76 mm
02:25 11.1 °C 9.6 °C 1013.4 hPa WSW 8.2 km/h 11.1 km/h 91 % 1.27 mm
02:40 11.1 °C 9.7 °C 1013.4 hPa WSW 7.1 km/h 9.3 km/h 91 % 0.76 mm
02:45 11.1 °C 9.7 °C 1013.4 hPa WSW 6.8 km/h 8.5 km/h 91 % 0.76 mm
02:55 11.1 °C 9.7 °C 1013.4 hPa WSW 7.2 km/h 11.4 km/h 91 % 1.27 mm
03:05 11.1 °C 9.7 °C 1013.4 hPa WSW 6.8 km/h 13.4 km/h 91 % 1.27 mm
03:20 11.1 °C 9.7 °C 1013.4 hPa SW 7.6 km/h 11.4 km/h 91 % 1.27 mm
03:40 11 °C 9.6 °C 1013.4 hPa SW 7.4 km/h 9.5 km/h 91 % 1.27 mm
03:50 10.9 °C 9.5 °C 1013.1 hPa WSW 6.3 km/h 9.8 km/h 91 % 0.76 mm
03:55 10.9 °C 9.5 °C 1013.1 hPa SW 6.9 km/h 13.7 km/h 91 % 0.76 mm
04:10 10.9 °C 9.5 °C 1013.1 hPa SW 7.7 km/h 10.8 km/h 91 % 0.76 mm
04:20 10.9 °C 9.5 °C 1013.1 hPa WSW 7.9 km/h 12.6 km/h 91 % 0.76 mm
04:25 10.9 °C 9.5 °C 1013.1 hPa WSW 7.6 km/h 12.6 km/h 91 % 0.76 mm
04:35 10.9 °C 9.6 °C 1013.1 hPa SSW 6.4 km/h 9.8 km/h 91 % 0 mm
04:40 11 °C 9.6 °C 1013.1 hPa SW 7.2 km/h 14.6 km/h 91 % 0 mm
04:45 11 °C 9.6 °C 1013.1 hPa SW 8.5 km/h 14.6 km/h 91 % 0 mm
05:10 11 °C 9.6 °C 1013.1 hPa SW 7.1 km/h 8.4 km/h 91 % 0 mm
05:15 11 °C 9.6 °C 1013.1 hPa SW 6.1 km/h 10.9 km/h 91 % 0 mm
05:25 11 °C 9.6 °C 1013.1 hPa WSW 7.1 km/h 11.1 km/h 91 % 0 mm
05:30 11 °C 9.6 °C 1013.1 hPa SSW 7.4 km/h 10.1 km/h 91 % 0 mm
05:40 11 °C 9.6 °C 1013.1 hPa WSW 7.9 km/h 12.4 km/h 91 % 0 mm
05:50 11 °C 9.6 °C 1013.1 hPa SW 8.4 km/h 10.8 km/h 91 % 0 mm
06:00 11 °C 9.6 °C 1013.1 hPa SW 7.9 km/h 11.7 km/h 91 % 0 mm
06:05 11 °C 9.6 °C 1013.1 hPa WSW 8.9 km/h 13.2 km/h 91 % 0 mm
06:20 11 °C 9.6 °C 1012.8 hPa SW 9.7 km/h 12.6 km/h 91 % 0 mm
06:25 10.9 °C 9.6 °C 1012.8 hPa SW 9.7 km/h 12.6 km/h 91 % 0 mm
06:40 10.9 °C 9.7 °C 1012.8 hPa SW 9.7 km/h 12.2 km/h 92 % 0 mm
06:50 10.9 °C 9.7 °C 1007.7 hPa SW 10 km/h 18.3 km/h 92 % 0 mm
06:55 10.9 °C 9.7 °C 1013.1 hPa WSW 11.6 km/h 19.5 km/h 92 % 0 mm
07:10 10.9 °C 9.5 °C 1012.8 hPa SW 10.3 km/h 20 km/h 91 % 0 mm
07:20 10.9 °C 9.5 °C 1012.8 hPa WSW 12.7 km/h 21.4 km/h 91 % 0 mm
07:25 10.8 °C 9.4 °C 1012.8 hPa WSW 12.4 km/h 20.8 km/h 91 % 0 mm
07:50 10.8 °C 9.4 °C 1013.1 hPa SW 9.8 km/h 15.1 km/h 91 % 0 mm
08:00 10.7 °C 9.3 °C 1013.1 hPa SW 11.6 km/h 15.4 km/h 91 % 0 mm
08:05 10.7 °C 9.2 °C 1013.1 hPa SW 10.9 km/h 16.3 km/h 91 % 0 mm
08:15 10.6 °C 9.2 °C 1008 hPa WSW 11.7 km/h 20.4 km/h 91 % 0 mm
08:25 10.7 °C 9.2 °C 1013.1 hPa WSW 11.7 km/h 12.9 km/h 91 % 0 mm
08:35 10.6 °C 9.2 °C 1013.1 hPa SW 8.7 km/h 13.7 km/h 91 % 0 mm
08:45 10.5 °C 9.1 °C 1013.1 hPa SW 10.8 km/h 12.4 km/h 91 % 0 mm
08:50 10.5 °C 9.1 °C 1013.4 hPa WSW 10.3 km/h 12.7 km/h 91 % 0 mm
09:00 10.5 °C 9.1 °C 1013.4 hPa SW 9.3 km/h 12.2 km/h 91 % 0 mm
09:05 10.5 °C 9.1 °C 1013.4 hPa WSW 9.3 km/h 11.1 km/h 91 % 0 mm
09:15 10.4 °C 9 °C 1013.8 hPa SW 9.7 km/h 11.3 km/h 91 % 0 mm
09:35 10.4 °C 9 °C 1013.8 hPa SW 9.5 km/h 10.3 km/h 91 % 0 mm
09:40 10.4 °C 9 °C 1013.8 hPa WSW 7.9 km/h 8.2 km/h 91 % 0 mm
09:50 10.3 °C 8.9 °C 1013.8 hPa SW 7.2 km/h 8.7 km/h 91 % 0 mm
09:55 10.3 °C 8.9 °C 1013.8 hPa WSW 7.2 km/h 11.3 km/h 91 % 0 mm
10:25 10.2 °C 8.6 °C 1014.1 hPa SSW 8.7 km/h 12.6 km/h 90 % 0 mm
10:30 10.2 °C 8.6 °C 1014.1 hPa SW 9.2 km/h 25.3 km/h 90 % 0 mm
10:45 10.3 °C 8.7 °C 1014.1 hPa SW 10 km/h 17.4 km/h 90 % 0 mm
11:00 10.3 °C 8.8 °C 1014.1 hPa SW 9.3 km/h 20.6 km/h 90 % 0 mm
11:10 10.4 °C 8.8 °C 1014.1 hPa SW 9 km/h 11.4 km/h 90 % 0 mm
11:25 10.4 °C 8.8 °C 1014.1 hPa SSW 10.3 km/h 12.1 km/h 90 % 0 mm
11:45 10.6 °C 8.9 °C 1014.1 hPa SW 10 km/h 15.3 km/h 89 % 0 mm
11:55 10.7 °C 8.9 °C 1014.1 hPa WSW 10.6 km/h 17.7 km/h 89 % 0 mm
12:15 10.7 °C 8.9 °C 1013.8 hPa SSW 11.1 km/h 15.9 km/h 89 % 0 mm
12:30 10.9 °C 9.2 °C 1013.4 hPa WNW 10.5 km/h 14.8 km/h 89 % 0 mm
12:35 10.9 °C 9.1 °C 1013.4 hPa SW 10.3 km/h 12.6 km/h 89 % 0 mm
Données Historique de MétéoKain
Courtoisie de Weather Underground - 2 mb

Pub